Sierra-at-tahoe, California
Current Conditions -  °F | °C
As of 10:53 AM on Friday 26 Dec 2014 (Local Time) from KTVL Reporting Station
Clear Clear  
Wind Chill: 26°   Ceiling: Unl
Heat Index: 31°   Visibility: 10mi
Dew Point: 12°   Wind: 5mph
Humidity: 46%   Direction: NA
Pressure: 30.12"   Gusts: NA
Location:  38.77°N, 120.16°W
Report Text: KTVL 261853Z AUTO VRB04KT 10SM CLR M01/M11 A3012 RMK AO2 SLP207 T10061111
Loading
Personal Weather Stations






























Interactive Weather Map New forecast layout! Learn more

10-Day Weather Forecast

Advertisements
Track Severe Weather on mobile